Time;durP1;ratioP1;P1;durP2;ratioP2;P2;SDS_P1;SDS_P2;PMS_P1;PMS_P2;Temp;Humidity;BMP_temperature;BMP_pressure;BME280_temperature;BME280_humidity;BME280_pressure;Samples;Min_cycle;Max_cycle;Signal;HPM_P1;HPM_P2
2023/07/30 04:05:16;;;;;;;1.10;1.10;;;17.80;99.90;;;;;;5612013;23;20553;-59
2023/07/30 04:07:41;;;;;;;1.10;1.10;;;17.90;99.90;;;;;;4935628;29;20462;-59
2023/07/30 04:10:08;;;;;;;1.70;1.60;;;17.90;99.90;;;;;;4935910;29;20189;-58
2023/07/30 04:12:33;;;;;;;6.90;3.07;;;18.00;99.90;;;;;;4935865;29;20185;-59
2023/07/30 04:14:59;;;;;;;2.97;1.77;;;18.00;99.90;;;;;;4935259;29;20445;-59
2023/07/30 04:17:24;;;;;;;1.93;1.50;;;18.00;99.90;;;;;;4938216;29;20672;-59
2023/07/30 04:19:50;;;;;;;1.40;1.30;;;18.00;99.90;;;;;;4939262;29;20188;-58
2023/07/30 04:22:16;;;;;;;1.93;1.63;;;18.10;99.90;;;;;;4939191;29;20265;-59
2023/07/30 04:24:41;;;;;;;1.73;1.63;;;18.10;99.90;;;;;;4938608;29;20190;-59
2023/07/30 04:27:07;;;;;;;1.50;1.40;;;18.10;99.90;;;;;;4939132;29;20184;-60
2023/07/30 04:29:32;;;;;;;1.50;1.40;;;18.10;99.90;;;;;;4939077;29;20607;-60
2023/07/30 04:31:58;;;;;;;1.77;1.67;;;18.10;99.90;;;;;;4938998;29;20185;-59
2023/07/30 04:34:24;;;;;;;1.77;1.67;;;18.10;99.90;;;;;;4938255;29;20181;-59
2023/07/30 04:36:49;;;;;;;1.40;1.20;;;18.20;99.90;;;;;;4938367;29;20181;-59
2023/07/30 04:39:15;;;;;;;2.53;1.83;;;18.20;99.90;;;;;;4938928;29;20182;-59
2023/07/30 04:41:40;;;;;;;1.47;1.37;;;18.20;99.90;;;;;;4938674;29;20215;-59
2023/07/30 04:44:06;;;;;;;1.67;1.57;;;18.20;99.90;;;;;;4938568;29;20173;-59
2023/07/30 04:46:33;;;;;;;1.03;1.03;;;18.10;99.90;;;;;;4938623;29;20282;-58
2023/07/30 04:48:58;;;;;;;1.17;1.17;;;18.10;99.90;;;;;;4938695;29;20206;-59
2023/07/30 04:51:24;;;;;;;1.90;1.80;;;18.10;99.90;;;;;;4938748;29;20483;-60
2023/07/30 04:53:50;;;;;;;1.80;1.50;;;18.00;99.90;;;;;;4938481;29;20185;-60
2023/07/30 04:56:15;;;;;;;2.83;1.70;;;18.00;99.90;;;;;;4938274;29;20205;-60
2023/07/30 04:58:41;;;;;;;1.67;1.57;;;18.00;99.90;;;;;;4938258;29;20201;-60
2023/07/30 05:01:06;;;;;;;1.50;1.40;;;18.00;99.90;;;;;;4937262;29;20543;-60
2023/07/30 05:03:32;;;;;;;1.70;1.60;;;18.00;99.90;;;;;;4938073;29;20194;-61
2023/07/30 05:05:57;;;;;;;1.23;1.23;;;18.00;99.90;;;;;;4936894;29;20205;-59
2023/07/30 05:08:23;;;;;;;1.60;1.50;;;18.10;99.90;;;;;;4938545;29;20184;-59
2023/07/30 05:10:48;;;;;;;1.93;1.70;;;18.10;99.90;;;;;;4938163;29;20181;-59
2023/07/30 05:13:14;;;;;;;1.83;1.73;;;18.10;99.90;;;;;;4938147;29;20198;-59
2023/07/30 05:15:40;;;;;;;1.50;1.40;;;18.20;99.90;;;;;;4937642;29;20198;-58
2023/07/30 05:18:05;;;;;;;1.27;1.27;;;18.20;99.90;;;;;;4938239;29;20205;-58
2023/07/30 05:20:31;;;;;;;2.20;2.00;;;18.20;99.90;;;;;;4937875;29;20225;-59
2023/07/30 05:22:56;;;;;;;2.37;2.17;;;18.20;99.90;;;;;;4937775;29;20252;-60
2023/07/30 05:25:22;;;;;;;1.90;1.70;;;18.30;99.90;;;;;;4937386;29;20193;-60
2023/07/30 05:27:48;;;;;;;1.83;1.73;;;18.30;99.90;;;;;;4937420;29;20181;-60
2023/07/30 05:30:14;;;;;;;1.90;1.80;;;18.30;99.90;;;;;;4937687;29;20519;-59
2023/07/30 05:32:39;;;;;;;1.87;1.77;;;18.30;99.90;;;;;;4937592;29;20184;-60
2023/07/30 05:35:05;;;;;;;2.47;2.30;;;18.40;99.90;;;;;;4936852;29;20208;-59
2023/07/30 05:37:31;;;;;;;2.47;2.10;;;18.30;99.90;;;;;;4937571;29;20201;-59
2023/07/30 05:39:57;;;;;;;1.77;1.67;;;18.40;99.90;;;;;;4937479;29;20751;-59
2023/07/30 05:42:23;;;;;;;1.63;1.53;;;18.30;99.90;;;;;;4937586;29;20201;-60
2023/07/30 05:44:48;;;;;;;1.83;1.73;;;18.40;99.90;;;;;;4936929;29;20992;-59
2023/07/30 05:47:14;;;;;;;2.03;1.83;;;18.40;99.90;;;;;;4937463;29;20188;-58
2023/07/30 05:49:39;;;;;;;2.53;2.43;;;18.40;99.90;;;;;;4936647;29;20233;-59
2023/07/30 05:52:05;;;;;;;1.70;1.60;;;18.40;99.90;;;;;;4937150;29;20188;-60
2023/07/30 05:54:31;;;;;;;1.03;1.03;;;18.50;99.90;;;;;;4936941;29;20185;-59
2023/07/30 05:56:56;;;;;;;1.57;1.47;;;18.50;99.90;;;;;;4937354;29;20192;-59
2023/07/30 05:59:22;;;;;;;1.43;1.27;;;18.50;99.90;;;;;;4936926;29;20174;-59
2023/07/30 06:01:47;;;;;;;1.70;1.60;;;18.60;99.90;;;;;;4937157;29;20182;-59
2023/07/30 06:04:13;;;;;;;1.63;1.20;;;18.60;99.90;;;;;;4937016;29;20205;-61
2023/07/30 06:06:38;;;;;;;1.50;1.40;;;18.60;99.90;;;;;;4937110;29;20552;-59
2023/07/30 06:09:04;;;;;;;2.03;1.93;;;18.60;99.90;;;;;;4937108;29;20252;-60
2023/07/30 06:11:30;;;;;;;1.50;1.40;;;18.60;99.90;;;;;;4937249;29;20643;-58
2023/07/30 06:13:55;;;;;;;1.53;1.43;;;18.70;99.90;;;;;;4936246;29;20181;-59
2023/07/30 06:16:21;;;;;;;1.20;1.10;;;18.70;99.90;;;;;;4936827;29;20197;-59
2023/07/30 06:18:47;;;;;;;1.37;1.27;;;18.80;99.90;;;;;;4937086;29;20209;-59
2023/07/30 06:21:13;;;;;;;1.40;1.30;;;19.00;99.90;;;;;;4936889;29;20180;-66
2023/07/30 06:23:38;;;;;;;2.40;1.87;;;19.10;99.90;;;;;;4936450;29;20915;-61
2023/07/30 06:26:04;;;;;;;1.33;1.17;;;19.30;99.90;;;;;;4934759;29;20647;-62
2023/07/30 06:28:29;;;;;;;1.67;1.57;;;19.30;99.90;;;;;;4936608;29;20177;-61
2023/07/30 06:30:55;;;;;;;0.90;0.90;;;19.40;99.90;;;;;;4934971;29;20185;-63
2023/07/30 06:33:20;;;;;;;1.37;1.27;;;19.40;99.90;;;;;;4936527;29;20182;-61
2023/07/30 06:35:46;;;;;;;0.90;0.90;;;19.50;99.90;;;;;;4936105;29;20197;-61
2023/07/30 06:38:11;;;;;;;0.83;0.83;;;19.50;99.90;;;;;;4935512;29;20200;-60
2023/07/30 06:40:37;;;;;;;1.13;1.13;;;19.50;99.90;;;;;;4935706;29;20261;-60
2023/07/30 06:43:03;;;;;;;1.33;1.20;;;19.50;99.90;;;;;;4935988;29;20628;-62
2023/07/30 06:45:28;;;;;;;1.63;1.53;;;19.60;99.90;;;;;;4934622;29;20201;-60
2023/07/30 06:47:54;;;;;;;1.33;1.23;;;19.80;99.90;;;;;;4936049;29;20177;-61
2023/07/30 06:50:19;;;;;;;1.63;1.00;;;20.00;99.90;;;;;;4934856;29;20188;-65
2023/07/30 06:52:45;;;;;;;1.00;1.00;;;20.10;99.90;;;;;;4936288;29;20219;-60
2023/07/30 06:55:10;;;;;;;0.70;0.70;;;20.20;99.90;;;;;;4935553;29;20204;-61
2023/07/30 06:57:36;;;;;;;1.30;1.30;;;20.60;99.90;;;;;;4935763;29;20229;-64
2023/07/30 07:00:04;;;;;;;1.20;1.10;;;20.80;99.90;;;;;;4936185;29;20626;-64
2023/07/30 07:02:30;;;;;;;0.70;0.70;;;21.00;99.90;;;;;;4936177;29;20409;-64
2023/07/30 07:04:55;;;;;;;1.70;1.30;;;21.10;99.90;;;;;;4933491;29;20972;-63
2023/07/30 07:07:21;;;;;;;0.80;0.80;;;21.30;99.90;;;;;;4935761;29;20264;-64
2023/07/30 07:09:47;;;;;;;0.87;0.87;;;21.50;99.90;;;;;;4935973;29;20241;-62
2023/07/30 07:12:12;;;;;;;2.70;1.93;;;21.50;99.90;;;;;;4935189;29;20184;-62
2023/07/30 07:14:39;;;;;;;2.33;1.83;;;21.50;99.90;;;;;;4934763;29;20249;-62
2023/07/30 07:17:04;;;;;;;1.87;1.40;;;21.30;99.90;;;;;;4935882;29;20231;-63
2023/07/30 07:19:31;;;;;;;0.77;0.77;;;21.20;99.90;;;;;;4935971;29;20404;-63
2023/07/30 07:21:56;;;;;;;1.20;1.20;;;21.00;99.90;;;;;;4935956;29;20172;-62
2023/07/30 07:24:22;;;;;;;1.00;1.00;;;20.80;99.90;;;;;;4935486;29;20401;-63
2023/07/30 07:26:47;;;;;;;1.00;1.00;;;20.60;99.90;;;;;;4935491;29;20664;-60
2023/07/30 07:29:13;;;;;;;1.10;1.00;;;20.50;99.90;;;;;;4935690;29;20208;-59
2023/07/30 07:31:38;;;;;;;1.40;1.30;;;20.40;99.90;;;;;;4935690;29;20178;-59
2023/07/30 07:34:04;;;;;;;1.97;1.87;;;20.30;99.90;;;;;;4935152;29;20174;-60
2023/07/30 07:36:30;;;;;;;1.20;1.20;;;20.10;99.90;;;;;;4935914;29;20243;-60
2023/07/30 07:38:55;;;;;;;1.40;1.30;;;20.10;99.90;;;;;;4935543;29;20259;-59
2023/07/30 07:41:21;;;;;;;1.23;1.13;;;20.10;99.90;;;;;;4935679;29;20177;-62
2023/07/30 07:43:47;;;;;;;1.10;1.10;;;20.00;99.90;;;;;;4935098;29;20688;-62
2023/07/30 07:46:13;;;;;;;0.90;0.90;;;20.00;99.90;;;;;;4934359;29;20426;-59
2023/07/30 07:48:40;;;;;;;0.90;0.90;;;20.00;99.90;;;;;;4935947;29;20177;-62
2023/07/30 07:51:06;;;;;;;0.60;0.60;;;20.00;99.90;;;;;;4937508;29;20412;-58
2023/07/30 07:53:32;;;;;;;1.50;1.30;;;19.90;99.90;;;;;;4939419;29;20475;-61
2023/07/30 07:55:57;;;;;;;0.90;0.90;;;19.80;99.90;;;;;;4939472;29;20437;-62
2023/07/30 07:58:23;;;;;;;0.90;0.87;;;19.70;99.90;;;;;;4938936;29;20212;-62
2023/07/30 08:00:49;;;;;;;0.65;0.65;;;19.60;99.90;;;;;;4936701;29;20515;-66
2023/07/30 08:03:14;;;;;;;0.60;0.60;;;19.50;99.90;;;;;;4939377;29;20182;-60
2023/07/30 08:05:40;;;;;;;0.93;0.93;;;19.50;99.90;;;;;;4938837;29;20676;-60
2023/07/30 08:08:06;;;;;;;1.20;1.10;;;19.40;99.90;;;;;;4939610;29;20185;-60
2023/07/30 08:10:31;;;;;;;0.90;0.90;;;19.40;99.90;;;;;;4939189;29;20636;-62
2023/07/30 08:12:57;;;;;;;0.87;0.87;;;19.60;99.90;;;;;;4939219;29;20186;-61
2023/07/30 08:15:22;;;;;;;0.80;0.77;;;19.70;99.90;;;;;;4938720;29;20837;-60
2023/07/30 08:17:48;;;;;;;1.37;1.23;;;19.90;99.90;;;;;;4938816;29;20213;-59
2023/07/30 08:20:14;;;;;;;1.80;1.23;;;20.20;99.90;;;;;;4939299;29;20220;-60
2023/07/30 08:22:39;;;;;;;1.00;0.80;;;20.30;99.90;;;;;;4938889;29;20174;-58
2023/07/30 08:25:05;;;;;;;0.70;0.70;;;20.50;99.90;;;;;;4944183;29;20269;-60
2023/07/30 08:27:31;;;;;;;0.70;0.70;;;20.60;99.90;;;;;;4957807;28;20206;-61
2023/07/30 08:29:56;;;;;;;0.70;0.70;;;20.70;99.90;;;;;;4939625;29;20405;-59
2023/07/30 08:32:22;;;;;;;0.97;0.97;;;20.80;99.90;;;;;;4937756;29;20189;-60
2023/07/30 08:34:47;;;;;;;0.87;0.87;;;20.90;99.90;;;;;;4938118;29;20212;-60
2023/07/30 08:37:13;;;;;;;0.60;0.60;;;21.20;99.90;;;;;;4938373;29;20239;-68
2023/07/30 08:39:39;;;;;;;0.93;0.90;;;21.50;99.90;;;;;;4938662;29;20177;-63
2023/07/30 08:42:04;;;;;;;0.80;0.80;;;22.00;99.90;;;;;;4938717;29;20628;-64
2023/07/30 08:44:30;;;;;;;0.70;0.70;;;22.70;99.90;;;;;;4938265;29;20197;-60
2023/07/30 08:46:56;;;;;;;0.90;0.90;;;23.30;99.90;;;;;;4938502;29;20178;-61
2023/07/30 08:49:21;;;;;;;1.20;1.10;;;23.80;99.90;;;;;;4938645;29;20175;-62
2023/07/30 08:51:52;;;;;;;1.00;0.90;;;24.00;99.90;;;;;;4938482;29;20215;-60
2023/07/30 08:54:20;;;;;;;0.93;0.93;;;24.20;99.90;;;;;;4938153;29;20208;-63
2023/07/30 08:56:46;;;;;;;1.97;1.77;;;24.30;99.90;;;;;;4938344;29;20777;-63
2023/07/30 08:59:13;;;;;;;2.27;0.77;;;24.50;99.90;;;;;;4938297;29;20459;-63
2023/07/30 09:01:40;;;;;;;0.93;0.93;;;24.60;99.90;;;;;;4938142;29;20459;-63
2023/07/30 09:04:06;;;;;;;1.37;1.27;;;24.80;99.90;;;;;;4938027;29;20417;-63
2023/07/30 09:06:32;;;;;;;0.87;0.87;;;24.90;99.90;;;;;;4937971;29;20497;-62
2023/07/30 09:08:58;;;;;;;0.93;0.93;;;24.90;99.90;;;;;;4937915;29;20440;-63
2023/07/30 09:11:27;;;;;;;0.80;0.80;;;24.90;99.90;;;;;;4938278;29;20927;-63
2023/07/30 09:13:57;;;;;;;1.03;0.93;;;24.70;99.90;;;;;;4937863;29;20219;-63
2023/07/30 09:16:25;;;;;;;1.17;1.10;;;24.40;99.90;;;;;;4937632;29;20450;-60
2023/07/30 09:18:53;;;;;;;3.10;2.80;;;24.20;99.90;;;;;;4938040;29;20957;-60
2023/07/30 09:21:19;;;;;;;1.43;1.33;;;24.10;99.90;;;;;;4937971;29;20432;-60
2023/07/30 09:23:47;;;;;;;1.20;1.20;;;24.40;99.90;;;;;;4937311;29;20894;-62
2023/07/30 09:26:13;;;;;;;0.70;0.70;;;24.50;99.90;;;;;;4937735;29;20287;-61
2023/07/30 09:28:42;;;;;;;1.50;1.40;;;24.50;99.90;;;;;;4937874;29;20478;-61
2023/07/30 09:31:09;;;;;;;1.00;1.00;;;24.40;99.90;;;;;;4937951;29;20487;-61
2023/07/30 09:33:40;;;;;;;1.07;0.97;;;24.30;99.90;;;;;;4937011;29;20433;-62
2023/07/30 09:36:09;;;;;;;1.00;0.90;;;24.20;99.90;;;;;;4937655;29;20417;-63
2023/07/30 09:38:42;;;;;;;1.57;1.27;;;24.00;99.90;;;;;;4936633;29;20448;-64
2023/07/30 09:41:09;;;;;;;1.20;1.20;;;24.00;99.90;;;;;;4937972;29;20433;-66
2023/07/30 09:43:39;;;;;;;1.83;1.73;;;24.00;99.90;;;;;;4937549;29;20407;-67
2023/07/30 09:46:06;;;;;;;1.07;1.07;;;23.90;99.90;;;;;;4937544;29;20488;-63
2023/07/30 09:48:34;;;;;;;1.00;1.00;;;23.80;99.90;;;;;;4936954;29;20440;-61
2023/07/30 09:51:02;;;;;;;1.30;1.17;;;23.60;99.90;;;;;;4937490;29;20792;-61
2023/07/30 09:53:34;;;;;;;1.20;1.10;;;23.40;99.90;;;;;;4936672;29;20472;-61
2023/07/30 09:56:03;;;;;;;0.80;0.80;;;23.30;99.90;;;;;;4937187;29;20931;-61
2023/07/30 09:58:29;;;;;;;2.73;2.10;;;23.10;99.90;;;;;;4937222;29;20457;-66
2023/07/30 10:00:58;;;;;;;2.10;0.90;;;22.90;99.90;;;;;;4937278;29;20492;-64
2023/07/30 10:03:23;;;;;;;1.53;1.33;;;22.80;99.90;;;;;;4937160;29;20396;-65
2023/07/30 10:05:54;;;;;;;1.20;1.10;;;22.70;99.90;;;;;;4936765;29;20496;-65
2023/07/30 10:08:26;;;;;;;0.80;0.80;;;22.50;99.90;;;;;;4937172;29;20181;-65
2023/07/30 10:10:54;;;;;;;1.13;1.00;;;22.40;99.90;;;;;;4937055;29;20412;-64
2023/07/30 10:13:20;;;;;;;1.17;0.97;;;22.40;99.90;;;;;;4936274;29;20465;-67
2023/07/30 10:15:47;;;;;;;2.13;1.93;;;22.40;99.90;;;;;;4934735;29;20441;-65
2023/07/30 10:18:12;;;;;;;1.07;1.00;;;22.40;99.90;;;;;;4936892;29;20533;-66
2023/07/30 10:20:39;;;;;;;2.30;1.37;;;22.50;99.90;;;;;;4937027;29;20449;-65
2023/07/30 10:23:05;;;;;;;0.83;0.83;;;22.70;99.90;;;;;;4936831;29;20229;-65
2023/07/30 10:25:46;;;;;;;1.50;1.40;;;23.00;99.90;;;;;;4936518;29;20411;-64
2023/07/30 10:28:33;;;;;;;0.90;0.90;;;23.40;99.90;;;;;;4936626;29;20422;-65
2023/07/30 10:31:01;;;;;;;1.10;1.10;;;23.70;99.90;;;;;;4936715;29;20407;-65
2023/07/30 10:33:50;;;;;;;1.50;1.30;;;24.10;99.90;;;;;;4936804;29;20781;-65
2023/07/30 10:36:19;;;;;;;0.90;0.90;;;25.10;99.90;;;;;;4936772;29;20434;-64
2023/07/30 10:38:45;;;;;;;1.10;1.00;;;26.00;99.90;;;;;;4936222;29;20893;-70
2023/07/30 10:41:13;;;;;;;1.20;1.20;;;26.70;99.90;;;;;;4935229;29;20418;-61
2023/07/30 10:43:48;;;;;;;1.27;1.17;;;27.20;99.90;;;;;;4935230;29;20425;-60
2023/07/30 10:46:15;;;;;;;1.70;1.10;;;27.60;99.50;;;;;;4936783;29;20523;-64
2023/07/30 10:48:43;;;;;;;1.20;1.10;;;28.00;98.30;;;;;;4936271;29;20800;-64
2023/07/30 10:51:16;;;;;;;1.47;1.37;;;28.50;97.90;;;;;;4936448;29;20406;-62
2023/07/30 10:53:45;;;;;;;1.70;1.60;;;28.80;96.90;;;;;;4934792;29;20444;-61
2023/07/30 10:56:11;;;;;;;1.07;1.00;;;29.00;95.60;;;;;;4936418;29;20845;-62
2023/07/30 10:58:37;;;;;;;1.10;1.00;;;29.20;95.70;;;;;;4936215;29;20831;-61
2023/07/30 11:01:07;;;;;;;1.47;1.37;;;29.50;94.50;;;;;;4936045;29;20417;-63
2023/07/30 11:03:33;;;;;;;1.57;1.40;;;29.60;94.50;;;;;;4935769;29;20190;-71
2023/07/30 11:06:00;;;;;;;1.20;1.10;;;29.80;93.50;;;;;;4935667;29;20449;-62
2023/07/30 11:08:37;;;;;;;1.43;1.33;;;30.10;93.70;;;;;;4936177;29;20757;-62
2023/07/30 11:11:03;;;;;;;1.07;1.07;;;30.30;91.70;;;;;;4935494;29;20508;-65
2023/07/30 11:13:28;;;;;;;1.30;1.30;;;30.30;91.10;;;;;;4935560;29;20780;-62
2023/07/30 11:15:54;;;;;;;1.20;1.10;;;30.30;92.50;;;;;;4934967;29;20433;-61
2023/07/30 11:18:20;;;;;;;1.30;1.20;;;30.10;91.50;;;;;;4935118;29;20217;-61
2023/07/30 11:20:45;;;;;;;0.80;0.80;;;29.70;92.00;;;;;;4935440;29;20205;-64
2023/07/30 11:23:21;;;;;;;1.00;1.00;;;29.00;91.80;;;;;;4935338;29;20169;-62
2023/07/30 11:25:50;;;;;;;1.00;1.00;;;28.50;92.20;;;;;;4937204;29;20272;-62
2023/07/30 11:28:29;;;;;;;0.97;0.97;;;27.80;91.90;;;;;;4940171;29;20533;-61
2023/07/30 11:31:16;;;;;;;1.20;1.20;;;27.10;92.50;;;;;;4940260;29;20414;-63
2023/07/30 11:33:44;;;;;;;1.50;1.40;;;26.20;94.00;;;;;;4920449;29;20413;-61
2023/07/30 11:36:28;;;;;;;1.30;1.00;;;25.40;95.80;;;;;;4920803;29;20444;-62
2023/07/30 11:38:53;;;;;;;1.20;1.10;;;24.70;97.40;;;;;;4919621;29;20531;-60
2023/07/30 11:41:21;;;;;;;1.17;1.13;;;24.40;98.50;;;;;;4920657;29;20558;-63
2023/07/30 11:43:47;;;;;;;0.87;0.77;;;24.30;99.20;;;;;;4920265;29;20202;-63
2023/07/30 11:46:14;;;;;;;1.40;1.00;;;24.10;99.90;;;;;;4923667;29;21046;-63
2023/07/30 11:48:41;;;;;;;1.30;1.30;;;24.10;99.90;;;;;;4939921;29;20177;-62
2023/07/30 11:51:07;;;;;;;0.80;0.80;;;24.20;99.40;;;;;;4939874;29;20384;-63
2023/07/30 11:53:51;;;;;;;1.10;1.10;;;24.20;99.40;;;;;;4939270;29;20420;-71
2023/07/30 11:56:18;;;;;;;1.27;1.17;;;24.20;99.80;;;;;;4938273;29;20488;-62
2023/07/30 11:58:44;;;;;;;0.97;0.97;;;24.10;99.90;;;;;;4939487;29;20452;-62
2023/07/30 12:01:10;;;;;;;2.20;1.07;;;24.10;99.90;;;;;;4939261;29;20439;-61
2023/07/30 12:03:37;;;;;;;3.60;1.50;;;24.10;99.90;;;;;;4937413;29;20177;-63
2023/07/30 12:06:06;;;;;;;0.83;0.83;;;24.10;99.90;;;;;;4938951;29;20209;-61
2023/07/30 12:08:34;;;;;;;1.00;0.80;;;24.00;99.90;;;;;;4939642;29;20440;-61
2023/07/30 12:11:03;;;;;;;0.80;0.80;;;24.00;99.90;;;;;;4939317;29;20413;-60
2023/07/30 12:13:29;;;;;;;1.87;0.90;;;23.90;99.90;;;;;;4939276;29;20751;-62
2023/07/30 12:15:56;;;;;;;0.80;0.80;;;23.90;99.90;;;;;;4938771;29;20408;-61
2023/07/30 12:18:23;;;;;;;1.77;1.10;;;23.90;99.90;;;;;;4938901;29;20237;-60
2023/07/30 12:20:50;;;;;;;0.70;0.70;;;23.90;99.90;;;;;;4939077;29;20443;-62
2023/07/30 12:23:17;;;;;;;0.60;0.60;;;23.80;99.90;;;;;;4939118;29;20404;-59
2023/07/30 12:25:42;;;;;;;1.13;1.03;;;23.70;99.90;;;;;;4938638;29;20440;-62
2023/07/30 12:28:08;;;;;;;0.97;0.67;;;23.60;99.90;;;;;;4938994;29;20404;-60
2023/07/30 12:30:35;;;;;;;1.07;1.00;;;23.50;99.90;;;;;;4938860;29;20636;-62
2023/07/30 12:33:01;;;;;;;0.63;0.60;;;23.50;99.90;;;;;;4938495;29;20536;-59
2023/07/30 12:35:27;;;;;;;0.93;0.93;;;23.60;99.90;;;;;;4938318;29;20434;-61
2023/07/30 12:37:52;;;;;;;1.23;1.13;;;23.60;99.90;;;;;;4937830;29;20215;-61
2023/07/30 12:40:18;;;;;;;1.10;1.10;;;23.60;99.90;;;;;;4938801;29;20184;-62
2023/07/30 12:42:43;;;;;;;0.80;0.80;;;23.70;99.90;;;;;;4937734;29;20540;-59
2023/07/30 12:45:09;;;;;;;1.47;1.37;;;23.80;99.90;;;;;;4938163;29;20194;-59
2023/07/30 12:47:36;;;;;;;1.30;1.20;;;23.90;99.90;;;;;;4938534;29;20540;-60
2023/07/30 12:50:02;;;;;;;0.87;0.87;;;23.90;99.90;;;;;;4938739;29;20767;-61
2023/07/30 12:52:28;;;;;;;0.80;0.80;;;23.80;99.90;;;;;;4938675;29;20417;-61
2023/07/30 12:54:54;;;;;;;1.40;1.10;;;23.70;99.90;;;;;;4938100;29;20499;-61
2023/07/30 12:57:19;;;;;;;2.00;1.00;;;23.80;99.90;;;;;;4938563;29;20205;-61
2023/07/30 12:59:45;;;;;;;1.03;0.97;;;23.80;99.90;;;;;;4938622;29;20192;-61
2023/07/30 13:02:10;;;;;;;0.83;0.77;;;23.90;99.90;;;;;;4937627;29;20184;-61
2023/07/30 13:04:36;;;;;;;1.30;1.20;;;24.00;99.90;;;;;;4936659;29;20181;-60
2023/07/30 13:07:02;;;;;;;0.90;0.90;;;24.10;99.90;;;;;;4938400;29;20272;-62
2023/07/30 13:09:28;;;;;;;0.77;0.77;;;24.10;99.90;;;;;;4938441;29;21024;-60
2023/07/30 13:11:54;;;;;;;1.10;1.00;;;24.20;99.90;;;;;;4938326;29;20177;-62
2023/07/30 13:14:19;;;;;;;0.70;0.70;;;24.10;99.10;;;;;;4937885;29;20390;-61
2023/07/30 13:16:45;;;;;;;0.90;0.90;;;24.10;99.20;;;;;;4937873;29;20172;-60
2023/07/30 13:19:11;;;;;;;1.30;1.20;;;24.00;99.90;;;;;;4938084;29;20213;-60
2023/07/30 13:21:37;;;;;;;0.73;0.73;;;23.90;99.90;;;;;;4937948;29;20533;-61
2023/07/30 13:24:03;;;;;;;1.10;1.00;;;23.90;99.40;;;;;;4937609;29;20165;-60
2023/07/30 13:26:29;;;;;;;1.13;1.03;;;23.80;99.90;;;;;;4937978;29;20443;-60
2023/07/30 13:28:54;;;;;;;1.10;1.10;;;23.80;99.20;;;;;;4937739;29;20698;-59
2023/07/30 13:31:20;;;;;;;1.00;1.00;;;24.00;99.90;;;;;;4938008;29;20257;-61
2023/07/30 13:33:47;;;;;;;1.07;0.97;;;24.10;99.40;;;;;;4937629;29;20581;-60
2023/07/30 13:36:13;;;;;;;0.90;0.90;;;24.10;98.40;;;;;;4937603;29;20679;-61
2023/07/30 13:38:39;;;;;;;1.00;0.90;;;24.00;98.70;;;;;;4937409;29;20443;-60
2023/07/30 13:41:05;;;;;;;1.10;1.00;;;24.10;99.10;;;;;;4937595;29;20420;-61
2023/07/30 13:43:31;;;;;;;0.90;0.90;;;24.20;99.10;;;;;;4937704;29;20431;-62
2023/07/30 13:45:57;;;;;;;1.80;1.00;;;24.30;98.70;;;;;;4937123;29;20831;-61
2023/07/30 13:48:27;;;;;;;0.97;0.97;;;24.20;98.60;;;;;;4937373;29;20781;-59
2023/07/30 13:50:52;;;;;;;0.70;0.70;;;24.10;98.20;;;;;;4937469;29;20492;-59
2023/07/30 13:53:18;;;;;;;0.70;0.70;;;24.00;98.20;;;;;;4937229;29;20490;-61
2023/07/30 13:55:44;;;;;;;0.83;0.77;;;24.00;98.10;;;;;;4937246;29;20205;-62
2023/07/30 13:58:10;;;;;;;1.10;1.00;;;23.90;97.90;;;;;;4936638;29;20564;-62
2023/07/30 14:00:35;;;;;;;0.73;0.70;;;23.90;98.10;;;;;;4936807;29;20425;-61
2023/07/30 14:03:01;;;;;;;0.63;0.63;;;24.00;98.70;;;;;;4937221;29;20249;-61
2023/07/30 14:05:29;;;;;;;1.63;1.00;;;24.20;98.30;;;;;;4936746;29;20768;-62
2023/07/30 14:07:56;;;;;;;0.80;0.80;;;24.20;97.40;;;;;;4935910;29;20200;-60
2023/07/30 14:10:27;;;;;;;1.30;1.20;;;24.40;97.80;;;;;;4937306;29;20400;-61
2023/07/30 14:12:52;;;;;;;0.70;0.70;;;24.40;96.40;;;;;;4936864;29;20400;-64
2023/07/30 14:15:18;;;;;;;2.20;1.40;;;24.40;96.30;;;;;;4936247;29;20461;-61
2023/07/30 14:17:44;;;;;;;0.93;0.93;;;24.30;96.90;;;;;;4937196;29;20248;-60
2023/07/30 14:20:09;;;;;;;1.10;1.10;;;24.20;96.50;;;;;;4937011;29;20166;-62
2023/07/30 14:22:36;;;;;;;1.00;1.00;;;24.20;96.80;;;;;;4937273;29;20221;-60
2023/07/30 14:25:02;;;;;;;0.80;0.80;;;24.20;96.80;;;;;;4936516;29;20190;-60
2023/07/30 14:27:28;;;;;;;1.20;1.10;;;24.20;97.10;;;;;;4936676;29;20438;-62
2023/07/30 14:29:53;;;;;;;0.93;0.93;;;24.10;97.70;;;;;;4936810;29;20469;-60
2023/07/30 14:32:23;;;;;;;0.97;0.87;;;24.00;96.80;;;;;;4936813;29;20170;-63
2023/07/30 14:34:49;;;;;;;0.90;0.90;;;23.80;96.20;;;;;;4936315;29;20297;-61
2023/07/30 14:37:15;;;;;;;1.27;0.87;;;23.80;96.30;;;;;;4935373;29;20505;-61
2023/07/30 14:39:41;;;;;;;0.70;0.60;;;23.70;96.50;;;;;;4936727;29;20173;-61
2023/07/30 14:42:06;;;;;;;2.60;0.80;;;23.60;96.80;;;;;;4936412;29;20181;-62
2023/07/30 14:44:32;;;;;;;0.50;0.50;;;23.60;96.10;;;;;;4936060;29;20867;-62
2023/07/30 14:46:58;;;;;;;1.27;1.17;;;23.60;96.40;;;;;;4936385;29;20177;-60
2023/07/30 14:49:24;;;;;;;0.80;0.80;;;23.60;96.40;;;;;;4936475;29;20177;-61
2023/07/30 14:51:52;;;;;;;1.03;0.87;;;23.50;96.40;;;;;;4936628;29;20388;-62
2023/07/30 14:54:18;;;;;;;1.00;1.00;;;23.50;97.10;;;;;;4936137;29;20230;-60
2023/07/30 14:56:44;;;;;;;1.17;0.80;;;23.50;96.10;;;;;;4936106;29;20455;-62
2023/07/30 14:59:10;;;;;;;0.70;0.70;;;23.40;96.90;;;;;;4934830;29;20202;-62
2023/07/30 15:01:36;;;;;;;0.80;0.80;;;23.40;96.00;;;;;;4935685;29;20173;-59
2023/07/30 15:04:04;;;;;;;0.93;0.93;;;23.30;95.60;;;;;;4935984;29;20893;-62
2023/07/30 15:06:30;;;;;;;0.63;0.60;;;23.20;96.20;;;;;;4936171;29;20726;-60
2023/07/30 15:08:56;;;;;;;0.70;0.70;;;23.20;95.70;;;;;;4936541;29;20409;-62
2023/07/30 15:11:22;;;;;;;0.87;0.87;;;23.10;95.60;;;;;;4936011;29;20402;-62
2023/07/30 15:13:48;;;;;;;0.70;0.70;;;23.10;95.10;;;;;;4935815;29;20178;-62
2023/07/30 15:16:13;;;;;;;0.90;0.90;;;23.00;95.10;;;;;;4936212;29;20551;-62
2023/07/30 15:18:41;;;;;;;2.50;0.90;;;22.90;95.70;;;;;;4936131;29;20216;-62
2023/07/30 15:21:10;;;;;;;2.33;1.27;;;22.90;96.40;;;;;;4936117;29;20179;-61
2023/07/30 15:23:35;;;;;;;1.10;1.00;;;22.90;96.00;;;;;;4935827;29;20412;-61
2023/07/30 15:26:01;;;;;;;6.80;1.00;;;22.80;95.60;;;;;;4935878;29;20879;-60
2023/07/30 15:28:27;;;;;;;1.23;1.23;;;22.90;96.00;;;;;;4936105;29;20173;-61
2023/07/30 15:30:52;;;;;;;0.57;0.57;;;22.90;95.90;;;;;;4935867;29;20417;-60
2023/07/30 15:33:18;;;;;;;1.23;0.60;;;22.90;95.60;;;;;;4935800;29;20191;-62
2023/07/30 15:35:43;;;;;;;0.60;0.60;;;23.00;96.00;;;;;;4934498;29;20207;-64
2023/07/30 15:38:09;;;;;;;2.10;0.80;;;23.00;95.70;;;;;;4936167;29;20211;-61
2023/07/30 15:40:35;;;;;;;0.70;0.70;;;23.00;95.40;;;;;;4936145;29;20276;-62
2023/07/30 15:43:04;;;;;;;1.13;0.67;;;23.00;95.60;;;;;;4935983;29;20180;-61
2023/07/30 15:45:30;;;;;;;0.80;0.80;;;23.00;94.90;;;;;;4935318;29;20540;-61
2023/07/30 15:47:57;;;;;;;1.00;0.90;;;23.00;94.20;;;;;;4936072;29;20476;-61
2023/07/30 15:50:26;;;;;;;2.50;1.00;;;23.00;93.70;;;;;;4936089;29;20467;-62
2023/07/30 15:52:52;;;;;;;0.90;0.90;;;22.90;93.70;;;;;;4936109;29;20417;-59
2023/07/30 15:55:18;;;;;;;0.87;0.87;;;22.80;94.00;;;;;;4935460;29;20419;-60
2023/07/30 15:57:43;;;;;;;0.80;0.80;;;22.70;94.30;;;;;;4934581;29;20798;-60
2023/07/30 16:00:10;;;;;;;0.67;0.67;;;22.70;94.20;;;;;;4935886;29;20442;-62
2023/07/30 16:02:36;;;;;;;0.60;0.60;;;22.60;94.30;;;;;;4935624;29;20595;-61
2023/07/30 16:05:01;;;;;;;0.70;0.70;;;22.60;94.70;;;;;;4934078;29;20498;-61
2023/07/30 16:07:27;;;;;;;0.67;0.67;;;22.50;94.60;;;;;;4935540;29;20686;-61
2023/07/30 16:09:52;;;;;;;0.93;0.93;;;22.40;94.70;;;;;;4935927;29;20180;-60
2023/07/30 16:12:18;;;;;;;0.50;0.50;;;22.30;94.60;;;;;;4937835;29;20670;-62
2023/07/30 16:14:44;;;;;;;0.80;0.77;;;22.20;94.40;;;;;;4938597;29;20197;-61
2023/07/30 16:17:10;;;;;;;1.00;0.60;;;22.20;94.50;;;;;;4938533;29;20545;-62
2023/07/30 16:19:36;;;;;;;1.77;1.30;;;22.10;94.80;;;;;;4939027;29;20441;-60
2023/07/30 16:22:01;;;;;;;0.60;0.60;;;22.00;95.00;;;;;;4939010;29;20826;-63
2023/07/30 16:24:27;;;;;;;1.90;0.83;;;21.90;95.00;;;;;;4938330;29;20178;-64
2023/07/30 16:26:53;;;;;;;0.90;0.57;;;22.00;95.20;;;;;;4937829;29;20174;-62
2023/07/30 16:29:18;;;;;;;1.70;0.90;;;22.00;94.70;;;;;;4938373;29;20177;-67
2023/07/30 16:31:44;;;;;;;0.80;0.80;;;21.90;94.60;;;;;;4938460;29;20205;-58
2023/07/30 16:34:10;;;;;;;0.97;0.80;;;21.90;94.50;;;;;;4936950;29;20660;-59
2023/07/30 16:36:35;;;;;;;0.80;0.50;;;21.80;94.50;;;;;;4937598;29;20207;-63
2023/07/30 16:39:01;;;;;;;1.60;1.13;;;21.70;93.80;;;;;;4938219;29;20196;-64
2023/07/30 16:41:27;;;;;;;0.60;0.60;;;21.60;94.20;;;;;;4938489;29;20170;-61
2023/07/30 16:43:53;;;;;;;0.80;0.60;;;21.50;93.80;;;;;;4938207;29;20261;-62
2023/07/30 16:46:18;;;;;;;3.30;0.97;;;21.40;94.20;;;;;;4937816;29;20205;-61
2023/07/30 16:48:44;;;;;;;0.70;0.70;;;21.30;94.10;;;;;;4938710;29;20447;-61